sensor_id;sensor_type;location;lat;lon;timestamp;P1;durP1;ratioP1;P2;durP2;ratioP2
24559;SDS011;12727;49.934;8.656;2023-07-09T00:01:34;5.07;;;2.80;;
24559;SDS011;12727;49.934;8.656;2023-07-09T00:04:01;7.60;;;2.45;;
24559;SDS011;12727;49.934;8.656;2023-07-09T00:06:27;7.03;;;3.38;;
24559;SDS011;12727;49.934;8.656;2023-07-09T00:08:53;4.70;;;2.80;;
24559;SDS011;12727;49.934;8.656;2023-07-09T00:11:18;4.50;;;2.40;;
24559;SDS011;12727;49.934;8.656;2023-07-09T00:13:44;5.47;;;2.80;;
24559;SDS011;12727;49.934;8.656;2023-07-09T00:16:14;5.03;;;2.92;;
24559;SDS011;12727;49.934;8.656;2023-07-09T00:18:43;6.13;;;2.33;;
24559;SDS011;12727;49.934;8.656;2023-07-09T00:21:09;6.95;;;2.58;;
24559;SDS011;12727;49.934;8.656;2023-07-09T00:23:35;6.82;;;2.60;;
24559;SDS011;12727;49.934;8.656;2023-07-09T00:26:07;4.65;;;2.60;;
24559;SDS011;12727;49.934;8.656;2023-07-09T00:28:34;5.63;;;2.50;;
24559;SDS011;12727;49.934;8.656;2023-07-09T00:31:00;3.28;;;2.47;;
24559;SDS011;12727;49.934;8.656;2023-07-09T00:33:25;4.60;;;2.50;;
24559;SDS011;12727;49.934;8.656;2023-07-09T00:35:56;5.60;;;2.78;;
24559;SDS011;12727;49.934;8.656;2023-07-09T00:38:22;3.70;;;2.58;;
24559;SDS011;12727;49.934;8.656;2023-07-09T00:40:56;4.20;;;2.38;;
24559;SDS011;12727;49.934;8.656;2023-07-09T00:43:24;3.92;;;2.65;;
24559;SDS011;12727;49.934;8.656;2023-07-09T00:48:35;4.97;;;2.53;;
24559;SDS011;12727;49.934;8.656;2023-07-09T00:51:01;6.70;;;3.03;;
24559;SDS011;12727;49.934;8.656;2023-07-09T00:53:29;5.28;;;2.88;;
24559;SDS011;12727;49.934;8.656;2023-07-09T00:55:59;5.32;;;3.00;;
24559;SDS011;12727;49.934;8.656;2023-07-09T00:58:30;5.93;;;2.35;;
24559;SDS011;12727;49.934;8.656;2023-07-09T01:01:00;9.63;;;2.58;;
24559;SDS011;12727;49.934;8.656;2023-07-09T01:03:34;7.40;;;3.05;;
24559;SDS011;12727;49.934;8.656;2023-07-09T01:06:03;7.18;;;3.40;;
24559;SDS011;12727;49.934;8.656;2023-07-09T01:08:31;4.43;;;2.65;;
24559;SDS011;12727;49.934;8.656;2023-07-09T01:10:59;4.32;;;2.55;;
24559;SDS011;12727;49.934;8.656;2023-07-09T01:13:26;4.85;;;2.55;;
24559;SDS011;12727;49.934;8.656;2023-07-09T01:15:53;4.45;;;2.47;;
24559;SDS011;12727;49.934;8.656;2023-07-09T01:18:20;4.60;;;2.95;;
24559;SDS011;12727;49.934;8.656;2023-07-09T01:20:46;5.90;;;3.30;;
24559;SDS011;12727;49.934;8.656;2023-07-09T01:23:12;4.30;;;2.90;;
24559;SDS011;12727;49.934;8.656;2023-07-09T01:25:42;7.43;;;3.30;;
24559;SDS011;12727;49.934;8.656;2023-07-09T01:28:17;9.60;;;3.30;;
24559;SDS011;12727;49.934;8.656;2023-07-09T01:30:43;7.55;;;3.20;;
24559;SDS011;12727;49.934;8.656;2023-07-09T01:33:09;6.05;;;3.17;;
24559;SDS011;12727;49.934;8.656;2023-07-09T01:35:36;6.38;;;3.22;;
24559;SDS011;12727;49.934;8.656;2023-07-09T01:38:05;5.65;;;2.92;;
24559;SDS011;12727;49.934;8.656;2023-07-09T01:40:32;7.22;;;3.00;;
24559;SDS011;12727;49.934;8.656;2023-07-09T01:42:58;4.97;;;3.03;;
24559;SDS011;12727;49.934;8.656;2023-07-09T01:45:25;5.20;;;2.85;;
24559;SDS011;12727;49.934;8.656;2023-07-09T01:47:51;6.30;;;3.30;;
24559;SDS011;12727;49.934;8.656;2023-07-09T01:50:18;5.45;;;2.90;;
24559;SDS011;12727;49.934;8.656;2023-07-09T01:52:44;5.50;;;3.50;;
24559;SDS011;12727;49.934;8.656;2023-07-09T01:55:12;7.65;;;3.35;;
24559;SDS011;12727;49.934;8.656;2023-07-09T01:57:41;6.15;;;3.28;;
24559;SDS011;12727;49.934;8.656;2023-07-09T02:00:09;5.75;;;3.30;;
24559;SDS011;12727;49.934;8.656;2023-07-09T02:02:38;6.65;;;3.45;;
24559;SDS011;12727;49.934;8.656;2023-07-09T02:05:07;5.90;;;3.72;;
24559;SDS011;12727;49.934;8.656;2023-07-09T02:07:34;4.90;;;3.47;;
24559;SDS011;12727;49.934;8.656;2023-07-09T02:10:00;7.55;;;3.38;;
24559;SDS011;12727;49.934;8.656;2023-07-09T02:12:25;5.63;;;3.30;;
24559;SDS011;12727;49.934;8.656;2023-07-09T02:14:51;5.35;;;3.35;;
24559;SDS011;12727;49.934;8.656;2023-07-09T02:17:16;4.45;;;3.30;;
24559;SDS011;12727;49.934;8.656;2023-07-09T02:19:42;11.48;;;3.67;;
24559;SDS011;12727;49.934;8.656;2023-07-09T02:22:08;5.28;;;2.88;;
24559;SDS011;12727;49.934;8.656;2023-07-09T02:24:35;6.25;;;2.90;;
24559;SDS011;12727;49.934;8.656;2023-07-09T02:27:03;6.38;;;3.45;;
24559;SDS011;12727;49.934;8.656;2023-07-09T02:29:30;5.32;;;3.35;;
24559;SDS011;12727;49.934;8.656;2023-07-09T02:31:57;4.57;;;2.85;;
24559;SDS011;12727;49.934;8.656;2023-07-09T02:34:27;7.78;;;3.22;;
24559;SDS011;12727;49.934;8.656;2023-07-09T02:36:54;5.43;;;3.17;;
24559;SDS011;12727;49.934;8.656;2023-07-09T02:39:21;5.38;;;3.58;;
24559;SDS011;12727;49.934;8.656;2023-07-09T02:41:48;5.57;;;3.08;;
24559;SDS011;12727;49.934;8.656;2023-07-09T02:44:14;7.65;;;3.50;;
24559;SDS011;12727;49.934;8.656;2023-07-09T02:46:40;4.75;;;3.25;;
24559;SDS011;12727;49.934;8.656;2023-07-09T02:49:06;6.70;;;3.42;;
24559;SDS011;12727;49.934;8.656;2023-07-09T02:51:34;9.32;;;3.60;;
24559;SDS011;12727;49.934;8.656;2023-07-09T02:54:00;5.13;;;3.40;;
24559;SDS011;12727;49.934;8.656;2023-07-09T02:56:27;6.82;;;3.15;;
24559;SDS011;12727;49.934;8.656;2023-07-09T02:58:54;5.88;;;2.72;;
24559;SDS011;12727;49.934;8.656;2023-07-09T03:01:20;4.90;;;2.78;;
24559;SDS011;12727;49.934;8.656;2023-07-09T03:03:53;4.82;;;2.92;;
24559;SDS011;12727;49.934;8.656;2023-07-09T03:06:20;6.55;;;3.70;;
24559;SDS011;12727;49.934;8.656;2023-07-09T03:08:47;7.20;;;3.30;;
24559;SDS011;12727;49.934;8.656;2023-07-09T03:11:13;8.50;;;3.70;;
24559;SDS011;12727;49.934;8.656;2023-07-09T03:13:40;5.85;;;3.45;;
24559;SDS011;12727;49.934;8.656;2023-07-09T03:16:06;5.05;;;3.00;;
24559;SDS011;12727;49.934;8.656;2023-07-09T03:18:31;4.28;;;2.80;;
24559;SDS011;12727;49.934;8.656;2023-07-09T03:20:57;6.20;;;3.30;;
24559;SDS011;12727;49.934;8.656;2023-07-09T03:23:23;5.15;;;3.30;;
24559;SDS011;12727;49.934;8.656;2023-07-09T03:25:49;5.60;;;2.95;;
24559;SDS011;12727;49.934;8.656;2023-07-09T03:28:14;6.18;;;3.90;;
24559;SDS011;12727;49.934;8.656;2023-07-09T03:30:44;5.22;;;3.28;;
24559;SDS011;12727;49.934;8.656;2023-07-09T03:33:11;4.18;;;2.80;;
24559;SDS011;12727;49.934;8.656;2023-07-09T03:35:38;4.30;;;3.03;;
24559;SDS011;12727;49.934;8.656;2023-07-09T03:38:04;5.20;;;3.05;;
24559;SDS011;12727;49.934;8.656;2023-07-09T03:40:30;4.63;;;3.28;;
24559;SDS011;12727;49.934;8.656;2023-07-09T03:42:56;5.53;;;3.08;;
24559;SDS011;12727;49.934;8.656;2023-07-09T03:45:22;6.55;;;3.17;;
24559;SDS011;12727;49.934;8.656;2023-07-09T03:47:48;6.05;;;2.75;;
24559;SDS011;12727;49.934;8.656;2023-07-09T03:50:14;4.65;;;2.95;;
24559;SDS011;12727;49.934;8.656;2023-07-09T03:52:40;6.30;;;2.95;;
24559;SDS011;12727;49.934;8.656;2023-07-09T03:55:05;5.50;;;3.10;;
24559;SDS011;12727;49.934;8.656;2023-07-09T03:57:31;6.63;;;4.38;;
24559;SDS011;12727;49.934;8.656;2023-07-09T03:59:58;7.85;;;4.07;;
24559;SDS011;12727;49.934;8.656;2023-07-09T04:02:23;8.75;;;4.50;;
24559;SDS011;12727;49.934;8.656;2023-07-09T04:04:49;9.32;;;4.63;;
24559;SDS011;12727;49.934;8.656;2023-07-09T04:07:15;8.50;;;4.00;;
24559;SDS011;12727;49.934;8.656;2023-07-09T04:09:41;4.38;;;3.20;;
24559;SDS011;12727;49.934;8.656;2023-07-09T04:12:07;5.72;;;3.75;;
24559;SDS011;12727;49.934;8.656;2023-07-09T04:14:34;5.32;;;3.10;;
24559;SDS011;12727;49.934;8.656;2023-07-09T04:17:00;7.15;;;3.58;;
24559;SDS011;12727;49.934;8.656;2023-07-09T04:19:25;5.82;;;3.55;;
24559;SDS011;12727;49.934;8.656;2023-07-09T04:21:51;7.85;;;3.58;;
24559;SDS011;12727;49.934;8.656;2023-07-09T04:24:17;6.80;;;3.42;;
24559;SDS011;12727;49.934;8.656;2023-07-09T04:26:44;6.70;;;3.85;;
24559;SDS011;12727;49.934;8.656;2023-07-09T04:29:10;7.68;;;3.97;;
24559;SDS011;12727;49.934;8.656;2023-07-09T04:31:35;7.63;;;3.08;;
24559;SDS011;12727;49.934;8.656;2023-07-09T04:34:01;6.53;;;3.70;;
24559;SDS011;12727;49.934;8.656;2023-07-09T04:36:27;4.78;;;3.65;;
24559;SDS011;12727;49.934;8.656;2023-07-09T04:38:52;7.40;;;3.60;;
24559;SDS011;12727;49.934;8.656;2023-07-09T04:41:18;6.90;;;3.28;;
24559;SDS011;12727;49.934;8.656;2023-07-09T04:43:43;5.32;;;3.58;;
24559;SDS011;12727;49.934;8.656;2023-07-09T04:46:09;4.70;;;3.50;;
24559;SDS011;12727;49.934;8.656;2023-07-09T04:48:34;5.97;;;4.13;;
24559;SDS011;12727;49.934;8.656;2023-07-09T04:51:00;6.53;;;3.60;;
24559;SDS011;12727;49.934;8.656;2023-07-09T04:53:26;6.22;;;3.50;;
24559;SDS011;12727;49.934;8.656;2023-07-09T04:55:52;6.30;;;3.88;;
24559;SDS011;12727;49.934;8.656;2023-07-09T04:58:18;6.82;;;3.30;;
24559;SDS011;12727;49.934;8.656;2023-07-09T05:00:44;6.43;;;3.40;;
24559;SDS011;12727;49.934;8.656;2023-07-09T05:03:10;6.70;;;3.90;;
24559;SDS011;12727;49.934;8.656;2023-07-09T05:05:41;6.00;;;3.63;;
24559;SDS011;12727;49.934;8.656;2023-07-09T05:08:11;7.68;;;3.80;;
24559;SDS011;12727;49.934;8.656;2023-07-09T05:10:44;7.88;;;4.03;;
24559;SDS011;12727;49.934;8.656;2023-07-09T05:13:11;7.07;;;3.78;;
24559;SDS011;12727;49.934;8.656;2023-07-09T05:15:39;8.18;;;3.90;;
24559;SDS011;12727;49.934;8.656;2023-07-09T05:18:06;7.30;;;4.28;;
24559;SDS011;12727;49.934;8.656;2023-07-09T05:20:35;6.40;;;4.18;;
24559;SDS011;12727;49.934;8.656;2023-07-09T05:23:00;5.10;;;4.03;;
24559;SDS011;12727;49.934;8.656;2023-07-09T05:25:26;7.35;;;4.32;;
24559;SDS011;12727;49.934;8.656;2023-07-09T05:27:52;8.65;;;4.32;;
24559;SDS011;12727;49.934;8.656;2023-07-09T05:30:18;6.20;;;3.55;;
24559;SDS011;12727;49.934;8.656;2023-07-09T05:32:44;4.40;;;3.30;;
24559;SDS011;12727;49.934;8.656;2023-07-09T05:35:09;10.60;;;3.75;;
24559;SDS011;12727;49.934;8.656;2023-07-09T05:37:36;7.78;;;4.30;;
24559;SDS011;12727;49.934;8.656;2023-07-09T05:40:02;8.75;;;4.40;;
24559;SDS011;12727;49.934;8.656;2023-07-09T05:42:30;7.85;;;4.32;;
24559;SDS011;12727;49.934;8.656;2023-07-09T05:44:56;7.88;;;4.50;;
24559;SDS011;12727;49.934;8.656;2023-07-09T05:47:21;8.85;;;4.57;;
24559;SDS011;12727;49.934;8.656;2023-07-09T05:49:47;10.63;;;4.70;;
24559;SDS011;12727;49.934;8.656;2023-07-09T05:52:15;9.77;;;4.03;;
24559;SDS011;12727;49.934;8.656;2023-07-09T05:54:42;7.32;;;4.15;;
24559;SDS011;12727;49.934;8.656;2023-07-09T05:57:07;9.75;;;4.60;;
24559;SDS011;12727;49.934;8.656;2023-07-09T05:59:33;6.80;;;4.40;;
24559;SDS011;12727;49.934;8.656;2023-07-09T06:01:58;7.70;;;4.20;;
24559;SDS011;12727;49.934;8.656;2023-07-09T06:04:26;9.00;;;4.40;;
24559;SDS011;12727;49.934;8.656;2023-07-09T06:06:52;7.95;;;4.05;;
24559;SDS011;12727;49.934;8.656;2023-07-09T06:09:18;6.97;;;4.03;;
24559;SDS011;12727;49.934;8.656;2023-07-09T06:11:44;10.38;;;4.05;;
24559;SDS011;12727;49.934;8.656;2023-07-09T06:14:10;8.40;;;4.20;;
24559;SDS011;12727;49.934;8.656;2023-07-09T06:16:35;8.77;;;4.57;;
24559;SDS011;12727;49.934;8.656;2023-07-09T06:19:02;7.03;;;4.47;;
24559;SDS011;12727;49.934;8.656;2023-07-09T06:21:28;7.47;;;3.92;;
24559;SDS011;12727;49.934;8.656;2023-07-09T06:23:54;6.28;;;3.85;;
24559;SDS011;12727;49.934;8.656;2023-07-09T06:26:19;8.80;;;3.67;;
24559;SDS011;12727;49.934;8.656;2023-07-09T06:28:45;6.00;;;3.88;;
24559;SDS011;12727;49.934;8.656;2023-07-09T06:31:11;6.43;;;3.83;;
24559;SDS011;12727;49.934;8.656;2023-07-09T06:33:36;7.43;;;3.85;;
24559;SDS011;12727;49.934;8.656;2023-07-09T06:36:02;8.63;;;3.95;;
24559;SDS011;12727;49.934;8.656;2023-07-09T06:38:28;9.57;;;4.00;;
24559;SDS011;12727;49.934;8.656;2023-07-09T06:40:54;7.38;;;3.67;;
24559;SDS011;12727;49.934;8.656;2023-07-09T06:43:21;10.13;;;4.22;;
24559;SDS011;12727;49.934;8.656;2023-07-09T06:48:25;6.78;;;4.13;;
24559;SDS011;12727;49.934;8.656;2023-07-09T06:50:53;8.57;;;4.10;;
24559;SDS011;12727;49.934;8.656;2023-07-09T06:53:20;6.60;;;4.20;;
24559;SDS011;12727;49.934;8.656;2023-07-09T06:55:47;8.10;;;4.30;;
24559;SDS011;12727;49.934;8.656;2023-07-09T06:58:15;7.50;;;4.00;;
24559;SDS011;12727;49.934;8.656;2023-07-09T07:00:41;8.32;;;4.20;;
24559;SDS011;12727;49.934;8.656;2023-07-09T07:03:08;9.20;;;3.80;;
24559;SDS011;12727;49.934;8.656;2023-07-09T07:05:34;8.43;;;3.75;;
24559;SDS011;12727;49.934;8.656;2023-07-09T07:08:00;7.65;;;4.57;;
24559;SDS011;12727;49.934;8.656;2023-07-09T07:10:28;7.75;;;4.05;;
24559;SDS011;12727;49.934;8.656;2023-07-09T07:12:53;9.50;;;4.50;;
24559;SDS011;12727;49.934;8.656;2023-07-09T07:15:19;7.57;;;4.45;;
24559;SDS011;12727;49.934;8.656;2023-07-09T07:17:45;12.25;;;4.82;;
24559;SDS011;12727;49.934;8.656;2023-07-09T07:20:11;8.80;;;4.70;;
24559;SDS011;12727;49.934;8.656;2023-07-09T07:22:38;7.20;;;4.50;;
24559;SDS011;12727;49.934;8.656;2023-07-09T07:25:04;7.50;;;4.30;;
24559;SDS011;12727;49.934;8.656;2023-07-09T07:27:31;10.10;;;4.78;;
24559;SDS011;12727;49.934;8.656;2023-07-09T07:29:57;8.63;;;4.60;;
24559;SDS011;12727;49.934;8.656;2023-07-09T07:32:23;8.60;;;4.63;;
24559;SDS011;12727;49.934;8.656;2023-07-09T07:34:49;8.70;;;4.72;;
24559;SDS011;12727;49.934;8.656;2023-07-09T07:37:18;9.80;;;4.18;;
24559;SDS011;12727;49.934;8.656;2023-07-09T07:39:50;7.72;;;4.15;;
24559;SDS011;12727;49.934;8.656;2023-07-09T07:42:15;9.00;;;4.63;;
24559;SDS011;12727;49.934;8.656;2023-07-09T07:44:41;8.65;;;4.75;;
24559;SDS011;12727;49.934;8.656;2023-07-09T07:47:07;7.90;;;4.82;;
24559;SDS011;12727;49.934;8.656;2023-07-09T07:49:33;11.75;;;4.60;;
24559;SDS011;12727;49.934;8.656;2023-07-09T07:51:58;8.13;;;4.15;;
24559;SDS011;12727;49.934;8.656;2023-07-09T07:54:28;7.35;;;4.28;;
24559;SDS011;12727;49.934;8.656;2023-07-09T07:56:55;7.47;;;4.40;;
24559;SDS011;12727;49.934;8.656;2023-07-09T07:59:20;7.22;;;4.20;;
24559;SDS011;12727;49.934;8.656;2023-07-09T08:01:46;7.20;;;4.28;;
24559;SDS011;12727;49.934;8.656;2023-07-09T08:04:11;6.90;;;4.03;;
24559;SDS011;12727;49.934;8.656;2023-07-09T08:06:38;5.68;;;4.40;;
24559;SDS011;12727;49.934;8.656;2023-07-09T08:09:03;6.70;;;4.40;;
24559;SDS011;12727;49.934;8.656;2023-07-09T08:11:29;8.70;;;4.45;;
24559;SDS011;12727;49.934;8.656;2023-07-09T08:13:57;8.18;;;4.40;;
24559;SDS011;12727;49.934;8.656;2023-07-09T08:16:23;8.93;;;4.32;;
24559;SDS011;12727;49.934;8.656;2023-07-09T08:18:49;7.90;;;4.40;;
24559;SDS011;12727;49.934;8.656;2023-07-09T08:21:17;6.18;;;4.53;;
24559;SDS011;12727;49.934;8.656;2023-07-09T08:23:43;7.63;;;4.63;;
24559;SDS011;12727;49.934;8.656;2023-07-09T08:26:09;8.85;;;4.05;;
24559;SDS011;12727;49.934;8.656;2023-07-09T08:28:35;9.40;;;4.30;;
24559;SDS011;12727;49.934;8.656;2023-07-09T08:31:01;9.82;;;4.45;;
24559;SDS011;12727;49.934;8.656;2023-07-09T08:33:30;6.22;;;4.20;;
24559;SDS011;12727;49.934;8.656;2023-07-09T08:35:56;5.82;;;4.20;;
24559;SDS011;12727;49.934;8.656;2023-07-09T08:38:22;7.85;;;4.40;;
24559;SDS011;12727;49.934;8.656;2023-07-09T08:40:49;7.82;;;4.18;;
24559;SDS011;12727;49.934;8.656;2023-07-09T08:43:28;9.75;;;4.55;;
24559;SDS011;12727;49.934;8.656;2023-07-09T08:46:12;6.65;;;4.03;;
24559;SDS011;12727;49.934;8.656;2023-07-09T08:48:52;4.93;;;3.78;;
24559;SDS011;12727;49.934;8.656;2023-07-09T08:54:04;6.47;;;4.43;;
24559;SDS011;12727;49.934;8.656;2023-07-09T08:56:50;6.47;;;3.90;;
24559;SDS011;12727;49.934;8.656;2023-07-09T08:59:15;6.70;;;4.00;;
24559;SDS011;12727;49.934;8.656;2023-07-09T09:01:46;11.77;;;4.10;;
24559;SDS011;12727;49.934;8.656;2023-07-09T09:07:37;6.15;;;3.60;;
24559;SDS011;12727;49.934;8.656;2023-07-09T09:09:54;7.18;;;4.05;;
24559;SDS011;12727;49.934;8.656;2023-07-09T09:12:28;6.00;;;3.60;;
24559;SDS011;12727;49.934;8.656;2023-07-09T09:15:16;7.05;;;3.53;;
24559;SDS011;12727;49.934;8.656;2023-07-09T09:17:43;6.13;;;4.10;;
24559;SDS011;12727;49.934;8.656;2023-07-09T09:20:12;6.80;;;3.20;;
24559;SDS011;12727;49.934;8.656;2023-07-09T09:22:57;8.63;;;4.20;;
24559;SDS011;12727;49.934;8.656;2023-07-09T09:25:37;7.60;;;3.97;;
24559;SDS011;12727;49.934;8.656;2023-07-09T09:28:05;6.47;;;3.53;;
24559;SDS011;12727;49.934;8.656;2023-07-09T09:30:32;5.18;;;3.50;;
24559;SDS011;12727;49.934;8.656;2023-07-09T09:32:58;8.02;;;3.80;;
24559;SDS011;12727;49.934;8.656;2023-07-09T09:35:27;7.60;;;3.80;;
24559;SDS011;12727;49.934;8.656;2023-07-09T09:37:54;4.72;;;3.55;;
24559;SDS011;12727;49.934;8.656;2023-07-09T09:40:21;6.80;;;4.15;;
24559;SDS011;12727;49.934;8.656;2023-07-09T09:42:49;6.68;;;3.65;;
24559;SDS011;12727;49.934;8.656;2023-07-09T09:45:16;5.57;;;3.75;;
24559;SDS011;12727;49.934;8.656;2023-07-09T09:47:44;9.52;;;4.25;;
24559;SDS011;12727;49.934;8.656;2023-07-09T09:50:18;7.25;;;3.95;;
24559;SDS011;12727;49.934;8.656;2023-07-09T09:52:46;6.25;;;3.70;;
24559;SDS011;12727;49.934;8.656;2023-07-09T09:55:16;5.18;;;3.47;;
24559;SDS011;12727;49.934;8.656;2023-07-09T09:57:50;7.43;;;3.92;;
24559;SDS011;12727;49.934;8.656;2023-07-09T10:00:16;7.30;;;3.60;;
24559;SDS011;12727;49.934;8.656;2023-07-09T10:02:43;8.90;;;3.55;;
24559;SDS011;12727;49.934;8.656;2023-07-09T10:05:14;6.68;;;3.58;;
24559;SDS011;12727;49.934;8.656;2023-07-09T10:07:51;7.35;;;3.50;;
24559;SDS011;12727;49.934;8.656;2023-07-09T10:10:28;5.90;;;3.75;;
24559;SDS011;12727;49.934;8.656;2023-07-09T10:13:05;6.43;;;3.75;;
24559;SDS011;12727;49.934;8.656;2023-07-09T10:21:44;6.88;;;3.55;;
24559;SDS011;12727;49.934;8.656;2023-07-09T10:24:14;7.07;;;3.60;;
24559;SDS011;12727;49.934;8.656;2023-07-09T10:26:58;7.13;;;3.60;;
24559;SDS011;12727;49.934;8.656;2023-07-09T10:29:39;4.57;;;3.60;;
24559;SDS011;12727;49.934;8.656;2023-07-09T10:32:24;6.95;;;3.55;;
24559;SDS011;12727;49.934;8.656;2023-07-09T10:35:10;7.10;;;3.55;;
24559;SDS011;12727;49.934;8.656;2023-07-09T10:40:46;7.97;;;3.60;;
24559;SDS011;12727;49.934;8.656;2023-07-09T10:43:36;6.22;;;3.67;;
24559;SDS011;12727;49.934;8.656;2023-07-09T10:46:10;4.95;;;3.22;;
24559;SDS011;12727;49.934;8.656;2023-07-09T10:51:07;7.07;;;3.33;;
24559;SDS011;12727;49.934;8.656;2023-07-09T10:53:45;5.00;;;3.40;;
24559;SDS011;12727;49.934;8.656;2023-07-09T10:56:22;5.40;;;3.40;;
24559;SDS011;12727;49.934;8.656;2023-07-09T10:59:03;7.70;;;3.40;;
24559;SDS011;12727;49.934;8.656;2023-07-09T11:01:42;8.02;;;3.33;;
24559;SDS011;12727;49.934;8.656;2023-07-09T11:04:35;7.38;;;3.53;;
24559;SDS011;12727;49.934;8.656;2023-07-09T11:09:37;8.50;;;3.03;;
24559;SDS011;12727;49.934;8.656;2023-07-09T11:12:10;7.80;;;3.92;;
24559;SDS011;12727;49.934;8.656;2023-07-09T11:14:43;7.10;;;3.10;;
24559;SDS011;12727;49.934;8.656;2023-07-09T11:17:17;7.47;;;3.15;;
24559;SDS011;12727;49.934;8.656;2023-07-09T11:19:45;5.78;;;3.00;;
24559;SDS011;12727;49.934;8.656;2023-07-09T11:23:01;5.03;;;3.10;;
24559;SDS011;12727;49.934;8.656;2023-07-09T11:27:32;6.15;;;3.40;;
24559;SDS011;12727;49.934;8.656;2023-07-09T11:29:59;7.03;;;3.08;;
24559;SDS011;12727;49.934;8.656;2023-07-09T11:32:27;4.60;;;3.03;;
24559;SDS011;12727;49.934;8.656;2023-07-09T11:34:53;5.82;;;3.17;;
24559;SDS011;12727;49.934;8.656;2023-07-09T11:37:20;5.25;;;2.92;;
24559;SDS011;12727;49.934;8.656;2023-07-09T11:39:50;7.43;;;3.20;;
24559;SDS011;12727;49.934;8.656;2023-07-09T11:45:04;4.97;;;2.90;;
24559;SDS011;12727;49.934;8.656;2023-07-09T11:47:36;5.60;;;3.10;;
24559;SDS011;12727;49.934;8.656;2023-07-09T11:50:26;6.68;;;3.30;;
24559;SDS011;12727;49.934;8.656;2023-07-09T11:52:56;4.40;;;3.05;;
24559;SDS011;12727;49.934;8.656;2023-07-09T11:55:36;4.65;;;3.17;;
24559;SDS011;12727;49.934;8.656;2023-07-09T11:58:04;5.85;;;2.90;;
24559;SDS011;12727;49.934;8.656;2023-07-09T12:00:36;5.85;;;3.13;;
24559;SDS011;12727;49.934;8.656;2023-07-09T12:03:07;5.80;;;3.25;;
24559;SDS011;12727;49.934;8.656;2023-07-09T12:05:39;7.03;;;3.05;;
24559;SDS011;12727;49.934;8.656;2023-07-09T12:08:11;6.13;;;3.38;;
24559;SDS011;12727;49.934;8.656;2023-07-09T12:10:40;8.02;;;3.08;;
24559;SDS011;12727;49.934;8.656;2023-07-09T12:13:08;7.47;;;3.53;;
24559;SDS011;12727;49.934;8.656;2023-07-09T12:15:36;6.82;;;2.92;;
24559;SDS011;12727;49.934;8.656;2023-07-09T12:18:09;6.38;;;3.00;;
24559;SDS011;12727;49.934;8.656;2023-07-09T12:25:54;7.10;;;3.38;;
24559;SDS011;12727;49.934;8.656;2023-07-09T12:28:21;5.80;;;3.05;;
24559;SDS011;12727;49.934;8.656;2023-07-09T12:30:47;5.40;;;3.38;;
24559;SDS011;12727;49.934;8.656;2023-07-09T12:33:32;8.05;;;3.28;;
24559;SDS011;12727;49.934;8.656;2023-07-09T12:35:58;5.55;;;3.10;;
24559;SDS011;12727;49.934;8.656;2023-07-09T12:38:27;5.70;;;2.83;;
24559;SDS011;12727;49.934;8.656;2023-07-09T12:47:24;5.90;;;3.40;;
24559;SDS011;12727;49.934;8.656;2023-07-09T12:49:50;4.65;;;3.30;;
24559;SDS011;12727;49.934;8.656;2023-07-09T12:55:42;6.93;;;3.03;;
24559;SDS011;12727;49.934;8.656;2023-07-09T12:58:16;4.50;;;3.10;;
24559;SDS011;12727;49.934;8.656;2023-07-09T13:00:48;7.68;;;3.60;;
24559;SDS011;12727;49.934;8.656;2023-07-09T13:03:19;5.47;;;2.72;;
24559;SDS011;12727;49.934;8.656;2023-07-09T13:09:13;6.22;;;3.10;;
24559;SDS011;12727;49.934;8.656;2023-07-09T13:11:45;10.98;;;3.97;;
24559;SDS011;12727;49.934;8.656;2023-07-09T13:14:21;7.60;;;3.45;;
24559;SDS011;12727;49.934;8.656;2023-07-09T13:16:52;5.93;;;3.30;;
24559;SDS011;12727;49.934;8.656;2023-07-09T13:19:26;6.53;;;3.80;;
24559;SDS011;12727;49.934;8.656;2023-07-09T13:21:52;5.88;;;3.38;;
24559;SDS011;12727;49.934;8.656;2023-07-09T13:30:30;8.43;;;3.88;;
24559;SDS011;12727;49.934;8.656;2023-07-09T13:32:56;5.88;;;3.20;;
24559;SDS011;12727;49.934;8.656;2023-07-09T13:38:44;5.95;;;3.38;;
24559;SDS011;12727;49.934;8.656;2023-07-09T13:41:15;7.63;;;3.42;;
24559;SDS011;12727;49.934;8.656;2023-07-09T13:43:44;6.60;;;4.10;;
24559;SDS011;12727;49.934;8.656;2023-07-09T13:46:11;6.32;;;3.90;;
24559;SDS011;12727;49.934;8.656;2023-07-09T13:51:59;6.47;;;3.40;;
24559;SDS011;12727;49.934;8.656;2023-07-09T13:54:27;5.72;;;3.90;;
24559;SDS011;12727;49.934;8.656;2023-07-09T13:57:00;8.77;;;3.80;;
24559;SDS011;12727;49.934;8.656;2023-07-09T14:02:55;7.47;;;3.75;;
24559;SDS011;12727;49.934;8.656;2023-07-09T14:05:21;5.70;;;3.47;;
24559;SDS011;12727;49.934;8.656;2023-07-09T14:11:11;4.32;;;3.17;;
24559;SDS011;12727;49.934;8.656;2023-07-09T14:13:39;6.82;;;3.50;;
24559;SDS011;12727;49.934;8.656;2023-07-09T14:22:30;9.60;;;4.10;;
24559;SDS011;12727;49.934;8.656;2023-07-09T14:24:59;6.53;;;3.50;;
24559;SDS011;12727;49.934;8.656;2023-07-09T14:30:52;5.68;;;3.40;;
24559;SDS011;12727;49.934;8.656;2023-07-09T14:33:19;6.97;;;3.75;;
24559;SDS011;12727;49.934;8.656;2023-07-09T14:35:45;6.15;;;3.45;;
24559;SDS011;12727;49.934;8.656;2023-07-09T14:38:14;4.95;;;3.38;;
24559;SDS011;12727;49.934;8.656;2023-07-09T14:40:41;6.25;;;3.05;;
24559;SDS011;12727;49.934;8.656;2023-07-09T14:46:29;6.32;;;2.90;;
24559;SDS011;12727;49.934;8.656;2023-07-09T14:48:55;4.80;;;2.88;;
24559;SDS011;12727;49.934;8.656;2023-07-09T14:51:20;6.03;;;2.85;;
24559;SDS011;12727;49.934;8.656;2023-07-09T14:53:46;6.80;;;2.75;;
24559;SDS011;12727;49.934;8.656;2023-07-09T14:56:12;6.80;;;3.13;;
24559;SDS011;12727;49.934;8.656;2023-07-09T14:58:39;6.22;;;3.00;;
24559;SDS011;12727;49.934;8.656;2023-07-09T15:01:04;5.85;;;3.25;;
24559;SDS011;12727;49.934;8.656;2023-07-09T15:03:34;8.23;;;3.50;;
24559;SDS011;12727;49.934;8.656;2023-07-09T15:06:00;7.20;;;3.00;;
24559;SDS011;12727;49.934;8.656;2023-07-09T15:08:27;7.78;;;3.08;;
24559;SDS011;12727;49.934;8.656;2023-07-09T15:10:53;5.82;;;3.33;;
24559;SDS011;12727;49.934;8.656;2023-07-09T15:13:21;5.13;;;2.60;;
24559;SDS011;12727;49.934;8.656;2023-07-09T15:15:57;6.70;;;2.80;;
24559;SDS011;12727;49.934;8.656;2023-07-09T15:18:26;11.20;;;7.15;;
24559;SDS011;12727;49.934;8.656;2023-07-09T15:20:56;7.07;;;2.95;;
24559;SDS011;12727;49.934;8.656;2023-07-09T15:23:23;5.05;;;2.92;;
24559;SDS011;12727;49.934;8.656;2023-07-09T15:25:50;7.90;;;3.47;;
24559;SDS011;12727;49.934;8.656;2023-07-09T15:28:16;6.75;;;3.67;;
24559;SDS011;12727;49.934;8.656;2023-07-09T15:30:42;6.05;;;3.50;;
24559;SDS011;12727;49.934;8.656;2023-07-09T15:33:12;5.63;;;2.97;;
24559;SDS011;12727;49.934;8.656;2023-07-09T15:35:40;5.78;;;3.00;;
24559;SDS011;12727;49.934;8.656;2023-07-09T15:38:12;6.78;;;3.83;;
24559;SDS011;12727;49.934;8.656;2023-07-09T15:40:56;6.20;;;3.00;;
24559;SDS011;12727;49.934;8.656;2023-07-09T15:43:22;6.38;;;3.25;;
24559;SDS011;12727;49.934;8.656;2023-07-09T15:45:50;6.05;;;3.78;;
24559;SDS011;12727;49.934;8.656;2023-07-09T15:48:24;7.47;;;2.92;;
24559;SDS011;12727;49.934;8.656;2023-07-09T15:50:51;8.10;;;3.47;;
24559;SDS011;12727;49.934;8.656;2023-07-09T15:53:16;5.90;;;3.65;;
24559;SDS011;12727;49.934;8.656;2023-07-09T15:55:42;6.10;;;3.50;;
24559;SDS011;12727;49.934;8.656;2023-07-09T15:58:08;7.70;;;3.40;;
24559;SDS011;12727;49.934;8.656;2023-07-09T16:00:43;7.70;;;2.97;;
24559;SDS011;12727;49.934;8.656;2023-07-09T16:03:10;7.28;;;3.30;;
24559;SDS011;12727;49.934;8.656;2023-07-09T16:05:36;5.90;;;3.25;;
24559;SDS011;12727;49.934;8.656;2023-07-09T16:08:03;7.80;;;3.58;;
24559;SDS011;12727;49.934;8.656;2023-07-09T16:10:28;8.10;;;3.58;;
24559;SDS011;12727;49.934;8.656;2023-07-09T16:12:55;6.97;;;3.20;;
24559;SDS011;12727;49.934;8.656;2023-07-09T16:15:22;7.63;;;3.75;;
24559;SDS011;12727;49.934;8.656;2023-07-09T16:17:48;7.35;;;3.30;;